sensor_id;sensor_type;location;lat;lon;timestamp;temperature;humidity
21459;DHT22;10891;49.350;19.386;2022-07-18T00:02:01;7.60;99.90
21459;DHT22;10891;49.350;19.386;2022-07-18T00:04:28;7.50;99.90
21459;DHT22;10891;49.350;19.386;2022-07-18T00:06:55;7.50;99.90
21459;DHT22;10891;49.350;19.386;2022-07-18T00:09:22;7.50;99.90
21459;DHT22;10891;49.350;19.386;2022-07-18T00:11:49;7.40;99.90
21459;DHT22;10891;49.350;19.386;2022-07-18T00:14:18;7.40;99.90
21459;DHT22;10891;49.350;19.386;2022-07-18T00:16:45;7.30;99.90
21459;DHT22;10891;49.350;19.386;2022-07-18T00:19:12;7.30;99.90
21459;DHT22;10891;49.350;19.386;2022-07-18T00:21:39;7.30;99.90
21459;DHT22;10891;49.350;19.386;2022-07-18T00:24:06;7.20;99.90
21459;DHT22;10891;49.350;19.386;2022-07-18T00:26:33;7.20;99.90
21459;DHT22;10891;49.350;19.386;2022-07-18T00:29:00;7.10;99.90
21459;DHT22;10891;49.350;19.386;2022-07-18T00:31:28;7.10;99.90
21459;DHT22;10891;49.350;19.386;2022-07-18T00:33:55;7.10;99.90
21459;DHT22;10891;49.350;19.386;2022-07-18T00:36:22;7.10;99.90
21459;DHT22;10891;49.350;19.386;2022-07-18T00:38:49;7.10;99.90
21459;DHT22;10891;49.350;19.386;2022-07-18T00:41:16;7.10;99.90
21459;DHT22;10891;49.350;19.386;2022-07-18T00:43:43;7.10;99.90
21459;DHT22;10891;49.350;19.386;2022-07-18T00:46:10;7.00;99.90
21459;DHT22;10891;49.350;19.386;2022-07-18T00:48:38;6.90;99.90
21459;DHT22;10891;49.350;19.386;2022-07-18T00:51:06;6.90;99.90
21459;DHT22;10891;49.350;19.386;2022-07-18T00:53:32;6.90;99.90
21459;DHT22;10891;49.350;19.386;2022-07-18T00:56:01;6.80;99.90
21459;DHT22;10891;49.350;19.386;2022-07-18T00:58:29;6.90;99.90
21459;DHT22;10891;49.350;19.386;2022-07-18T01:00:56;6.90;99.90
21459;DHT22;10891;49.350;19.386;2022-07-18T01:03:42;6.90;99.90
21459;DHT22;10891;49.350;19.386;2022-07-18T01:06:09;6.80;99.90
21459;DHT22;10891;49.350;19.386;2022-07-18T01:08:36;6.80;99.90
21459;DHT22;10891;49.350;19.386;2022-07-18T01:11:04;6.80;99.90
21459;DHT22;10891;49.350;19.386;2022-07-18T01:13:31;6.80;99.90
21459;DHT22;10891;49.350;19.386;2022-07-18T01:15:58;6.80;99.90
21459;DHT22;10891;49.350;19.386;2022-07-18T01:18:25;6.70;99.90
21459;DHT22;10891;49.350;19.386;2022-07-18T01:20:53;6.70;99.90
21459;DHT22;10891;49.350;19.386;2022-07-18T01:23:20;6.60;99.90
21459;DHT22;10891;49.350;19.386;2022-07-18T01:25:47;6.60;99.90
21459;DHT22;10891;49.350;19.386;2022-07-18T01:28:14;6.60;99.90
21459;DHT22;10891;49.350;19.386;2022-07-18T01:30:41;6.50;99.90
21459;DHT22;10891;49.350;19.386;2022-07-18T01:33:08;6.50;99.90
21459;DHT22;10891;49.350;19.386;2022-07-18T01:35:35;6.50;99.90
21459;DHT22;10891;49.350;19.386;2022-07-18T01:38:04;6.50;99.90
21459;DHT22;10891;49.350;19.386;2022-07-18T01:40:31;6.50;99.90
21459;DHT22;10891;49.350;19.386;2022-07-18T01:42:58;6.50;99.90
21459;DHT22;10891;49.350;19.386;2022-07-18T01:45:25;6.50;99.90
21459;DHT22;10891;49.350;19.386;2022-07-18T01:47:51;6.60;99.90
21459;DHT22;10891;49.350;19.386;2022-07-18T01:50:18;6.60;99.90
21459;DHT22;10891;49.350;19.386;2022-07-18T01:52:45;6.60;99.90
21459;DHT22;10891;49.350;19.386;2022-07-18T01:55:13;6.60;99.90
21459;DHT22;10891;49.350;19.386;2022-07-18T01:57:40;6.60;99.90
21459;DHT22;10891;49.350;19.386;2022-07-18T02:00:09;6.50;99.90
21459;DHT22;10891;49.350;19.386;2022-07-18T02:02:36;6.50;99.90
21459;DHT22;10891;49.350;19.386;2022-07-18T02:05:05;6.50;99.90
21459;DHT22;10891;49.350;19.386;2022-07-18T02:07:34;6.40;99.90
21459;DHT22;10891;49.350;19.386;2022-07-18T02:10:04;6.40;99.90
21459;DHT22;10891;49.350;19.386;2022-07-18T02:12:33;6.30;99.90
21459;DHT22;10891;49.350;19.386;2022-07-18T02:15:00;6.20;99.90
21459;DHT22;10891;49.350;19.386;2022-07-18T02:17:27;6.20;99.90
21459;DHT22;10891;49.350;19.386;2022-07-18T02:19:54;6.10;99.90
21459;DHT22;10891;49.350;19.386;2022-07-18T02:22:20;6.10;99.90
21459;DHT22;10891;49.350;19.386;2022-07-18T02:24:47;6.10;99.90
21459;DHT22;10891;49.350;19.386;2022-07-18T02:27:14;6.20;99.90
21459;DHT22;10891;49.350;19.386;2022-07-18T02:29:42;6.10;99.90
21459;DHT22;10891;49.350;19.386;2022-07-18T02:32:09;6.10;99.90
21459;DHT22;10891;49.350;19.386;2022-07-18T02:34:36;6.20;99.90
21459;DHT22;10891;49.350;19.386;2022-07-18T02:37:03;6.20;99.90
21459;DHT22;10891;49.350;19.386;2022-07-18T02:39:30;6.10;99.90
21459;DHT22;10891;49.350;19.386;2022-07-18T02:41:57;6.10;99.90
21459;DHT22;10891;49.350;19.386;2022-07-18T02:44:24;6.20;99.90
21459;DHT22;10891;49.350;19.386;2022-07-18T02:46:52;6.20;99.90
21459;DHT22;10891;49.350;19.386;2022-07-18T02:49:19;6.20;99.90
21459;DHT22;10891;49.350;19.386;2022-07-18T02:51:59;6.10;99.90
21459;DHT22;10891;49.350;19.386;2022-07-18T02:54:27;6.10;99.90
21459;DHT22;10891;49.350;19.386;2022-07-18T02:56:54;6.10;99.90
21459;DHT22;10891;49.350;19.386;2022-07-18T02:59:21;6.00;99.90
21459;DHT22;10891;49.350;19.386;2022-07-18T03:01:48;6.10;99.90
21459;DHT22;10891;49.350;19.386;2022-07-18T03:04:17;6.10;99.90
21459;DHT22;10891;49.350;19.386;2022-07-18T03:06:44;6.10;99.90
21459;DHT22;10891;49.350;19.386;2022-07-18T03:09:12;6.20;99.90
21459;DHT22;10891;49.350;19.386;2022-07-18T03:11:39;6.30;99.90
21459;DHT22;10891;49.350;19.386;2022-07-18T03:14:06;6.40;99.90
21459;DHT22;10891;49.350;19.386;2022-07-18T03:16:33;6.40;99.90
21459;DHT22;10891;49.350;19.386;2022-07-18T03:19:00;6.50;99.90
21459;DHT22;10891;49.350;19.386;2022-07-18T03:21:28;6.60;99.90
21459;DHT22;10891;49.350;19.386;2022-07-18T03:23:55;6.80;99.90
21459;DHT22;10891;49.350;19.386;2022-07-18T03:26:22;6.90;99.90
21459;DHT22;10891;49.350;19.386;2022-07-18T03:28:49;7.00;99.90
21459;DHT22;10891;49.350;19.386;2022-07-18T03:31:16;7.10;99.90
21459;DHT22;10891;49.350;19.386;2022-07-18T03:33:43;7.20;99.90
21459;DHT22;10891;49.350;19.386;2022-07-18T03:36:10;7.30;99.90
21459;DHT22;10891;49.350;19.386;2022-07-18T03:38:38;7.40;99.90
21459;DHT22;10891;49.350;19.386;2022-07-18T03:41:08;7.50;99.90
21459;DHT22;10891;49.350;19.386;2022-07-18T03:43:35;7.50;99.90
21459;DHT22;10891;49.350;19.386;2022-07-18T03:46:02;7.30;99.90
21459;DHT22;10891;49.350;19.386;2022-07-18T03:48:29;7.30;99.90
21459;DHT22;10891;49.350;19.386;2022-07-18T03:50:56;7.30;99.90
21459;DHT22;10891;49.350;19.386;2022-07-18T03:53:22;7.50;99.90
21459;DHT22;10891;49.350;19.386;2022-07-18T03:55:51;8.70;99.90
21459;DHT22;10891;49.350;19.386;2022-07-18T03:58:17;10.80;99.90
21459;DHT22;10891;49.350;19.386;2022-07-18T04:00:44;12.90;99.90
21459;DHT22;10891;49.350;19.386;2022-07-18T04:03:12;14.40;99.90
21459;DHT22;10891;49.350;19.386;2022-07-18T04:05:39;16.00;99.90
21459;DHT22;10891;49.350;19.386;2022-07-18T04:08:06;17.40;97.10
21459;DHT22;10891;49.350;19.386;2022-07-18T04:10:33;18.50;94.60
21459;DHT22;10891;49.350;19.386;2022-07-18T04:13:01;19.30;92.60
21459;DHT22;10891;49.350;19.386;2022-07-18T04:15:30;19.80;91.10
21459;DHT22;10891;49.350;19.386;2022-07-18T04:17:57;20.10;90.30
21459;DHT22;10891;49.350;19.386;2022-07-18T04:20:24;19.90;90.40
21459;DHT22;10891;49.350;19.386;2022-07-18T04:22:54;19.80;90.40
21459;DHT22;10891;49.350;19.386;2022-07-18T04:25:24;19.60;90.20
21459;DHT22;10891;49.350;19.386;2022-07-18T04:27:52;20.20;90.20
21459;DHT22;10891;49.350;19.386;2022-07-18T04:30:21;20.70;88.10
21459;DHT22;10891;49.350;19.386;2022-07-18T04:32:49;21.10;87.10
21459;DHT22;10891;49.350;19.386;2022-07-18T04:35:16;21.60;85.40
21459;DHT22;10891;49.350;19.386;2022-07-18T04:37:42;21.90;84.80
21459;DHT22;10891;49.350;19.386;2022-07-18T04:40:11;22.00;83.90
21459;DHT22;10891;49.350;19.386;2022-07-18T04:42:38;22.20;83.80
21459;DHT22;10891;49.350;19.386;2022-07-18T04:45:06;22.30;83.10
21459;DHT22;10891;49.350;19.386;2022-07-18T04:47:34;22.30;83.60
21459;DHT22;10891;49.350;19.386;2022-07-18T04:50:02;22.00;84.10
21459;DHT22;10891;49.350;19.386;2022-07-18T04:52:35;21.80;84.80
21459;DHT22;10891;49.350;19.386;2022-07-18T04:55:03;22.30;83.00
21459;DHT22;10891;49.350;19.386;2022-07-18T04:57:29;23.40;82.00
21459;DHT22;10891;49.350;19.386;2022-07-18T04:59:56;24.20;80.00
21459;DHT22;10891;49.350;19.386;2022-07-18T05:02:23;25.00;77.20
21459;DHT22;10891;49.350;19.386;2022-07-18T05:04:52;25.50;75.40
21459;DHT22;10891;49.350;19.386;2022-07-18T05:07:18;25.60;74.20
21459;DHT22;10891;49.350;19.386;2022-07-18T05:09:45;25.10;74.40
21459;DHT22;10891;49.350;19.386;2022-07-18T05:12:12;25.40;76.20
21459;DHT22;10891;49.350;19.386;2022-07-18T05:14:39;25.70;75.40
21459;DHT22;10891;49.350;19.386;2022-07-18T05:17:06;25.90;74.40
21459;DHT22;10891;49.350;19.386;2022-07-18T05:19:32;26.00;74.10
21459;DHT22;10891;49.350;19.386;2022-07-18T05:22:01;25.90;73.80
21459;DHT22;10891;49.350;19.386;2022-07-18T05:24:28;25.70;74.90
21459;DHT22;10891;49.350;19.386;2022-07-18T05:26:54;25.70;75.40
21459;DHT22;10891;49.350;19.386;2022-07-18T05:29:21;26.10;74.00
21459;DHT22;10891;49.350;19.386;2022-07-18T05:31:48;26.80;74.00
21459;DHT22;10891;49.350;19.386;2022-07-18T05:34:15;26.40;72.40
21459;DHT22;10891;49.350;19.386;2022-07-18T05:36:42;25.70;74.80
21459;DHT22;10891;49.350;19.386;2022-07-18T05:39:10;25.80;74.20
21459;DHT22;10891;49.350;19.386;2022-07-18T05:41:37;25.40;76.80
21459;DHT22;10891;49.350;19.386;2022-07-18T05:44:04;26.20;76.50
21459;DHT22;10891;49.350;19.386;2022-07-18T05:46:31;27.40;73.20
21459;DHT22;10891;49.350;19.386;2022-07-18T05:48:58;27.20;71.60
21459;DHT22;10891;49.350;19.386;2022-07-18T05:51:25;26.60;73.90
21459;DHT22;10891;49.350;19.386;2022-07-18T05:53:52;26.80;74.00
21459;DHT22;10891;49.350;19.386;2022-07-18T05:56:20;27.70;73.30
21459;DHT22;10891;49.350;19.386;2022-07-18T05:58:47;27.30;72.50
21459;DHT22;10891;49.350;19.386;2022-07-18T06:01:14;27.20;72.80
21459;DHT22;10891;49.350;19.386;2022-07-18T06:03:45;26.60;75.30
21459;DHT22;10891;49.350;19.386;2022-07-18T06:06:13;27.30;74.00
21459;DHT22;10891;49.350;19.386;2022-07-18T06:08:40;27.40;72.20
21459;DHT22;10891;49.350;19.386;2022-07-18T06:11:07;27.70;71.00
21459;DHT22;10891;49.350;19.386;2022-07-18T06:13:37;26.30;73.40
21459;DHT22;10891;49.350;19.386;2022-07-18T06:16:05;25.10;75.30
21459;DHT22;10891;49.350;19.386;2022-07-18T06:18:32;23.90;79.30
21459;DHT22;10891;49.350;19.386;2022-07-18T06:21:00;22.90;81.60
21459;DHT22;10891;49.350;19.386;2022-07-18T06:23:28;22.20;84.90
21459;DHT22;10891;49.350;19.386;2022-07-18T06:25:55;21.80;86.80
21459;DHT22;10891;49.350;19.386;2022-07-18T06:28:22;21.40;87.20
21459;DHT22;10891;49.350;19.386;2022-07-18T06:30:52;21.00;88.80
21459;DHT22;10891;49.350;19.386;2022-07-18T06:33:19;21.00;88.30
21459;DHT22;10891;49.350;19.386;2022-07-18T06:35:46;20.90;88.40
21459;DHT22;10891;49.350;19.386;2022-07-18T06:38:13;20.80;89.20
21459;DHT22;10891;49.350;19.386;2022-07-18T06:40:40;20.60;89.90
21459;DHT22;10891;49.350;19.386;2022-07-18T06:43:07;20.30;90.80
21459;DHT22;10891;49.350;19.386;2022-07-18T06:45:34;20.20;91.30
21459;DHT22;10891;49.350;19.386;2022-07-18T06:48:02;20.30;91.30
21459;DHT22;10891;49.350;19.386;2022-07-18T06:50:29;20.60;91.20
21459;DHT22;10891;49.350;19.386;2022-07-18T06:52:56;21.00;91.30
21459;DHT22;10891;49.350;19.386;2022-07-18T06:55:23;21.40;91.00
21459;DHT22;10891;49.350;19.386;2022-07-18T06:57:49;21.50;90.60
21459;DHT22;10891;49.350;19.386;2022-07-18T07:00:16;21.50;90.40
21459;DHT22;10891;49.350;19.386;2022-07-18T07:02:45;21.60;90.40
21459;DHT22;10891;49.350;19.386;2022-07-18T07:05:14;21.50;90.60
21459;DHT22;10891;49.350;19.386;2022-07-18T07:07:41;21.30;90.80
21459;DHT22;10891;49.350;19.386;2022-07-18T07:10:08;21.20;91.10
21459;DHT22;10891;49.350;19.386;2022-07-18T07:12:39;21.00;90.60
21459;DHT22;10891;49.350;19.386;2022-07-18T07:15:08;20.90;90.70
21459;DHT22;10891;49.350;19.386;2022-07-18T07:17:35;21.00;90.60
21459;DHT22;10891;49.350;19.386;2022-07-18T07:20:03;21.10;90.90
21459;DHT22;10891;49.350;19.386;2022-07-18T07:22:32;21.60;90.30
21459;DHT22;10891;49.350;19.386;2022-07-18T07:24:59;22.50;90.10
21459;DHT22;10891;49.350;19.386;2022-07-18T07:27:26;23.20;87.30
21459;DHT22;10891;49.350;19.386;2022-07-18T07:29:52;22.80;88.20
21459;DHT22;10891;49.350;19.386;2022-07-18T07:32:19;22.60;89.50
21459;DHT22;10891;49.350;19.386;2022-07-18T07:34:46;22.50;88.40
21459;DHT22;10891;49.350;19.386;2022-07-18T07:37:13;22.60;88.80
21459;DHT22;10891;49.350;19.386;2022-07-18T07:39:41;22.30;89.60
21459;DHT22;10891;49.350;19.386;2022-07-18T07:42:08;22.20;87.40
21459;DHT22;10891;49.350;19.386;2022-07-18T07:44:35;22.00;88.10
21459;DHT22;10891;49.350;19.386;2022-07-18T07:47:02;21.90;87.90
21459;DHT22;10891;49.350;19.386;2022-07-18T07:49:29;22.10;88.40
21459;DHT22;10891;49.350;19.386;2022-07-18T07:51:59;22.20;88.60
21459;DHT22;10891;49.350;19.386;2022-07-18T07:54:26;22.30;87.80
21459;DHT22;10891;49.350;19.386;2022-07-18T07:56:54;22.30;87.20
21459;DHT22;10891;49.350;19.386;2022-07-18T07:59:21;22.30;87.50
21459;DHT22;10891;49.350;19.386;2022-07-18T08:01:48;22.70;87.20
21459;DHT22;10891;49.350;19.386;2022-07-18T08:04:15;23.00;86.60
21459;DHT22;10891;49.350;19.386;2022-07-18T08:06:42;23.00;86.70
21459;DHT22;10891;49.350;19.386;2022-07-18T08:09:08;23.00;86.20
21459;DHT22;10891;49.350;19.386;2022-07-18T08:11:35;23.30;84.30
21459;DHT22;10891;49.350;19.386;2022-07-18T08:14:04;23.50;83.20
21459;DHT22;10891;49.350;19.386;2022-07-18T08:16:31;23.80;81.20
21459;DHT22;10891;49.350;19.386;2022-07-18T08:18:58;23.50;81.50
21459;DHT22;10891;49.350;19.386;2022-07-18T08:21:24;23.40;83.00
21459;DHT22;10891;49.350;19.386;2022-07-18T08:23:51;23.40;81.50
21459;DHT22;10891;49.350;19.386;2022-07-18T08:26:18;23.20;81.10
21459;DHT22;10891;49.350;19.386;2022-07-18T08:28:45;23.30;80.60
21459;DHT22;10891;49.350;19.386;2022-07-18T08:31:14;23.50;81.00
21459;DHT22;10891;49.350;19.386;2022-07-18T08:33:42;23.40;78.70
21459;DHT22;10891;49.350;19.386;2022-07-18T08:36:09;23.70;76.60
21459;DHT22;10891;49.350;19.386;2022-07-18T08:38:36;23.60;77.80
21459;DHT22;10891;49.350;19.386;2022-07-18T08:41:03;23.90;77.60
21459;DHT22;10891;49.350;19.386;2022-07-18T08:43:31;23.90;77.00
21459;DHT22;10891;49.350;19.386;2022-07-18T08:46:02;23.70;77.20
21459;DHT22;10891;49.350;19.386;2022-07-18T08:48:31;23.30;77.50
21459;DHT22;10891;49.350;19.386;2022-07-18T08:50:59;23.10;78.70
21459;DHT22;10891;49.350;19.386;2022-07-18T08:53:27;22.80;79.90
21459;DHT22;10891;49.350;19.386;2022-07-18T08:55:54;22.80;80.60
21459;DHT22;10891;49.350;19.386;2022-07-18T08:58:21;22.80;78.90
21459;DHT22;10891;49.350;19.386;2022-07-18T09:00:48;22.70;80.90
21459;DHT22;10891;49.350;19.386;2022-07-18T09:03:14;22.80;78.10
21459;DHT22;10891;49.350;19.386;2022-07-18T09:05:43;22.90;80.70
21459;DHT22;10891;49.350;19.386;2022-07-18T09:08:11;22.90;79.70
21459;DHT22;10891;49.350;19.386;2022-07-18T09:10:47;23.00;80.70
21459;DHT22;10891;49.350;19.386;2022-07-18T09:13:14;22.70;80.20
21459;DHT22;10891;49.350;19.386;2022-07-18T09:15:57;22.20;81.00
21459;DHT22;10891;49.350;19.386;2022-07-18T09:18:26;22.10;82.40
21459;DHT22;10891;49.350;19.386;2022-07-18T09:20:59;22.00;81.20
21459;DHT22;10891;49.350;19.386;2022-07-18T09:23:28;21.80;82.00
21459;DHT22;10891;49.350;19.386;2022-07-18T09:25:55;21.90;82.90
21459;DHT22;10891;49.350;19.386;2022-07-18T09:28:22;21.90;82.90
21459;DHT22;10891;49.350;19.386;2022-07-18T09:30:49;21.90;83.20
21459;DHT22;10891;49.350;19.386;2022-07-18T09:33:16;21.90;81.20
21459;DHT22;10891;49.350;19.386;2022-07-18T09:35:48;21.90;81.80
21459;DHT22;10891;49.350;19.386;2022-07-18T09:38:18;21.80;80.80
21459;DHT22;10891;49.350;19.386;2022-07-18T09:40:47;21.70;84.10
21459;DHT22;10891;49.350;19.386;2022-07-18T09:43:15;21.80;82.20
21459;DHT22;10891;49.350;19.386;2022-07-18T09:45:44;22.00;82.60
21459;DHT22;10891;49.350;19.386;2022-07-18T09:48:14;22.10;81.90
21459;DHT22;10891;49.350;19.386;2022-07-18T09:50:45;22.10;80.80
21459;DHT22;10891;49.350;19.386;2022-07-18T09:53:18;22.30;81.60
21459;DHT22;10891;49.350;19.386;2022-07-18T09:55:50;22.40;80.90
21459;DHT22;10891;49.350;19.386;2022-07-18T09:58:19;22.30;79.80
21459;DHT22;10891;49.350;19.386;2022-07-18T10:00:47;22.40;82.80
21459;DHT22;10891;49.350;19.386;2022-07-18T10:03:15;22.40;82.60
21459;DHT22;10891;49.350;19.386;2022-07-18T10:05:44;22.60;84.60
21459;DHT22;10891;49.350;19.386;2022-07-18T10:08:13;22.80;83.20
21459;DHT22;10891;49.350;19.386;2022-07-18T10:10:44;22.70;82.00
21459;DHT22;10891;49.350;19.386;2022-07-18T10:13:12;22.70;81.20
21459;DHT22;10891;49.350;19.386;2022-07-18T10:15:40;22.70;80.20
21459;DHT22;10891;49.350;19.386;2022-07-18T10:18:09;22.80;82.00
21459;DHT22;10891;49.350;19.386;2022-07-18T10:20:37;22.80;81.30
21459;DHT22;10891;49.350;19.386;2022-07-18T10:23:11;23.00;80.60
21459;DHT22;10891;49.350;19.386;2022-07-18T10:25:39;22.90;81.20
21459;DHT22;10891;49.350;19.386;2022-07-18T10:28:11;23.10;81.50
21459;DHT22;10891;49.350;19.386;2022-07-18T10:30:42;23.20;81.10
21459;DHT22;10891;49.350;19.386;2022-07-18T10:33:38;23.30;81.50
21459;DHT22;10891;49.350;19.386;2022-07-18T10:36:08;23.40;81.90
21459;DHT22;10891;49.350;19.386;2022-07-18T10:38:36;23.50;80.80
21459;DHT22;10891;49.350;19.386;2022-07-18T10:41:08;23.60;81.00
21459;DHT22;10891;49.350;19.386;2022-07-18T10:43:43;23.80;82.10
21459;DHT22;10891;49.350;19.386;2022-07-18T10:46:11;23.80;79.70
21459;DHT22;10891;49.350;19.386;2022-07-18T10:48:53;23.90;80.60
21459;DHT22;10891;49.350;19.386;2022-07-18T10:51:22;24.00;81.80
21459;DHT22;10891;49.350;19.386;2022-07-18T10:54:05;24.20;82.90
21459;DHT22;10891;49.350;19.386;2022-07-18T10:57:07;24.30;80.60
21459;DHT22;10891;49.350;19.386;2022-07-18T10:59:37;24.20;78.90
21459;DHT22;10891;49.350;19.386;2022-07-18T11:02:06;24.30;81.20
21459;DHT22;10891;49.350;19.386;2022-07-18T11:04:39;24.50;79.60
21459;DHT22;10891;49.350;19.386;2022-07-18T11:07:11;24.50;79.20
21459;DHT22;10891;49.350;19.386;2022-07-18T11:09:41;24.60;80.00
21459;DHT22;10891;49.350;19.386;2022-07-18T11:12:23;24.70;79.30
21459;DHT22;10891;49.350;19.386;2022-07-18T11:15:04;24.70;78.80
21459;DHT22;10891;49.350;19.386;2022-07-18T11:17:54;24.80;79.00
21459;DHT22;10891;49.350;19.386;2022-07-18T11:20:27;24.80;78.60
21459;DHT22;10891;49.350;19.386;2022-07-18T11:22:55;24.40;76.70
21459;DHT22;10891;49.350;19.386;2022-07-18T11:25:25;24.50;79.80
21459;DHT22;10891;49.350;19.386;2022-07-18T11:27:53;24.50;77.70
21459;DHT22;10891;49.350;19.386;2022-07-18T11:30:23;24.90;78.70
21459;DHT22;10891;49.350;19.386;2022-07-18T11:32:50;25.20;78.80
21459;DHT22;10891;49.350;19.386;2022-07-18T11:35:21;25.00;77.70
21459;DHT22;10891;49.350;19.386;2022-07-18T11:37:50;25.10;77.40
21459;DHT22;10891;49.350;19.386;2022-07-18T11:40:17;25.10;76.60
21459;DHT22;10891;49.350;19.386;2022-07-18T11:42:44;24.90;75.20
21459;DHT22;10891;49.350;19.386;2022-07-18T11:45:13;25.00;77.20
21459;DHT22;10891;49.350;19.386;2022-07-18T11:47:45;24.80;76.20
21459;DHT22;10891;49.350;19.386;2022-07-18T11:50:13;24.90;78.50
21459;DHT22;10891;49.350;19.386;2022-07-18T11:52:40;24.50;75.30
21459;DHT22;10891;49.350;19.386;2022-07-18T11:55:10;24.70;73.90
21459;DHT22;10891;49.350;19.386;2022-07-18T11:57:37;24.60;72.20
21459;DHT22;10891;49.350;19.386;2022-07-18T12:00:15;24.80;74.90
21459;DHT22;10891;49.350;19.386;2022-07-18T12:03:09;25.00;75.00
21459;DHT22;10891;49.350;19.386;2022-07-18T12:05:39;25.20;74.80
21459;DHT22;10891;49.350;19.386;2022-07-18T12:08:31;25.50;72.40
21459;DHT22;10891;49.350;19.386;2022-07-18T12:11:06;25.60;72.10
21459;DHT22;10891;49.350;19.386;2022-07-18T12:13:44;25.20;71.70
21459;DHT22;10891;49.350;19.386;2022-07-18T12:16:29;25.10;72.90
21459;DHT22;10891;49.350;19.386;2022-07-18T12:19:00;25.00;76.20
21459;DHT22;10891;49.350;19.386;2022-07-18T12:21:40;25.30;75.80
21459;DHT22;10891;49.350;19.386;2022-07-18T12:24:24;25.50;74.90
21459;DHT22;10891;49.350;19.386;2022-07-18T12:27:08;25.30;71.90
21459;DHT22;10891;49.350;19.386;2022-07-18T12:30:00;25.00;73.30
21459;DHT22;10891;49.350;19.386;2022-07-18T12:32:30;24.80;73.80
21459;DHT22;10891;49.350;19.386;2022-07-18T12:35:06;24.90;74.20
21459;DHT22;10891;49.350;19.386;2022-07-18T12:37:33;25.10;73.40
21459;DHT22;10891;49.350;19.386;2022-07-18T12:40:03;25.30;73.40
21459;DHT22;10891;49.350;19.386;2022-07-18T12:42:32;25.20;73.10
21459;DHT22;10891;49.350;19.386;2022-07-18T12:45:00;25.10;72.10
21459;DHT22;10891;49.350;19.386;2022-07-18T12:47:27;25.20;74.70
21459;DHT22;10891;49.350;19.386;2022-07-18T12:49:55;25.20;73.00
21459;DHT22;10891;49.350;19.386;2022-07-18T12:52:23;25.20;73.60
21459;DHT22;10891;49.350;19.386;2022-07-18T12:54:50;25.00;73.40
21459;DHT22;10891;49.350;19.386;2022-07-18T12:57:18;25.40;73.60
21459;DHT22;10891;49.350;19.386;2022-07-18T12:59:46;25.30;73.60
21459;DHT22;10891;49.350;19.386;2022-07-18T13:02:13;25.50;73.60
21459;DHT22;10891;49.350;19.386;2022-07-18T13:04:40;25.10;72.00
21459;DHT22;10891;49.350;19.386;2022-07-18T13:07:07;25.10;72.80
21459;DHT22;10891;49.350;19.386;2022-07-18T13:09:36;25.10;72.60
21459;DHT22;10891;49.350;19.386;2022-07-18T13:12:04;25.20;72.00
21459;DHT22;10891;49.350;19.386;2022-07-18T13:14:32;25.40;72.70
21459;DHT22;10891;49.350;19.386;2022-07-18T13:16:59;25.60;72.50
21459;DHT22;10891;49.350;19.386;2022-07-18T13:19:26;25.50;72.20
21459;DHT22;10891;49.350;19.386;2022-07-18T13:21:54;25.40;71.80
21459;DHT22;10891;49.350;19.386;2022-07-18T13:24:20;25.30;73.40
21459;DHT22;10891;49.350;19.386;2022-07-18T13:26:49;25.00;73.80
21459;DHT22;10891;49.350;19.386;2022-07-18T13:29:16;24.90;73.40
21459;DHT22;10891;49.350;19.386;2022-07-18T13:31:44;25.00;73.70
21459;DHT22;10891;49.350;19.386;2022-07-18T13:34:10;25.00;71.10
21459;DHT22;10891;49.350;19.386;2022-07-18T13:36:38;25.20;72.80
21459;DHT22;10891;49.350;19.386;2022-07-18T13:39:04;25.20;72.70
21459;DHT22;10891;49.350;19.386;2022-07-18T13:41:32;25.20;72.50
21459;DHT22;10891;49.350;19.386;2022-07-18T13:44:01;25.50;71.80
21459;DHT22;10891;49.350;19.386;2022-07-18T13:46:28;25.40;72.20
21459;DHT22;10891;49.350;19.386;2022-07-18T13:48:55;25.40;73.00
21459;DHT22;10891;49.350;19.386;2022-07-18T13:51:22;25.60;72.10
21459;DHT22;10891;49.350;19.386;2022-07-18T13:53:49;25.50;70.40
21459;DHT22;10891;49.350;19.386;2022-07-18T13:56:16;25.40;67.90
21459;DHT22;10891;49.350;19.386;2022-07-18T13:58:43;25.30;69.60
21459;DHT22;10891;49.350;19.386;2022-07-18T14:01:12;24.90;70.20
21459;DHT22;10891;49.350;19.386;2022-07-18T14:03:39;25.10;70.80
21459;DHT22;10891;49.350;19.386;2022-07-18T14:06:05;25.30;72.60
21459;DHT22;10891;49.350;19.386;2022-07-18T14:08:32;25.40;71.60
21459;DHT22;10891;49.350;19.386;2022-07-18T14:10:59;25.40;69.80
21459;DHT22;10891;49.350;19.386;2022-07-18T14:13:26;25.60;72.10
21459;DHT22;10891;49.350;19.386;2022-07-18T14:15:53;25.50;69.50
21459;DHT22;10891;49.350;19.386;2022-07-18T14:18:21;25.50;68.20
21459;DHT22;10891;49.350;19.386;2022-07-18T14:20:48;25.20;67.40
21459;DHT22;10891;49.350;19.386;2022-07-18T14:23:15;25.40;68.80
21459;DHT22;10891;49.350;19.386;2022-07-18T14:25:42;25.40;70.20
21459;DHT22;10891;49.350;19.386;2022-07-18T14:28:09;25.40;69.00
21459;DHT22;10891;49.350;19.386;2022-07-18T14:30:36;25.50;70.10
21459;DHT22;10891;49.350;19.386;2022-07-18T14:33:03;25.40;70.40
21459;DHT22;10891;49.350;19.386;2022-07-18T14:35:31;25.30;69.60
21459;DHT22;10891;49.350;19.386;2022-07-18T14:37:58;25.40;70.40
21459;DHT22;10891;49.350;19.386;2022-07-18T14:40:25;25.30;69.60
21459;DHT22;10891;49.350;19.386;2022-07-18T14:42:52;25.20;71.60
21459;DHT22;10891;49.350;19.386;2022-07-18T14:45:19;25.30;70.80
21459;DHT22;10891;49.350;19.386;2022-07-18T14:47:46;25.40;70.70
21459;DHT22;10891;49.350;19.386;2022-07-18T14:50:13;25.50;69.30
21459;DHT22;10891;49.350;19.386;2022-07-18T14:52:41;25.20;69.00
21459;DHT22;10891;49.350;19.386;2022-07-18T14:55:08;25.30;70.40
21459;DHT22;10891;49.350;19.386;2022-07-18T14:57:36;25.50;68.60
21459;DHT22;10891;49.350;19.386;2022-07-18T15:00:06;25.90;70.10
21459;DHT22;10891;49.350;19.386;2022-07-18T15:02:34;25.90;70.00
21459;DHT22;10891;49.350;19.386;2022-07-18T15:05:02;26.30;69.20
21459;DHT22;10891;49.350;19.386;2022-07-18T15:07:29;25.80;67.90
21459;DHT22;10891;49.350;19.386;2022-07-18T15:09:57;25.60;70.20
21459;DHT22;10891;49.350;19.386;2022-07-18T15:12:24;25.00;69.60
21459;DHT22;10891;49.350;19.386;2022-07-18T15:14:53;25.30;70.80
21459;DHT22;10891;49.350;19.386;2022-07-18T15:17:22;25.30;68.80
21459;DHT22;10891;49.350;19.386;2022-07-18T15:19:49;25.30;69.00
21459;DHT22;10891;49.350;19.386;2022-07-18T15:22:16;25.60;68.50
21459;DHT22;10891;49.350;19.386;2022-07-18T15:24:43;25.70;69.40
21459;DHT22;10891;49.350;19.386;2022-07-18T15:27:11;25.50;70.30
21459;DHT22;10891;49.350;19.386;2022-07-18T15:29:39;25.40;70.00